Terminal Aerodrome Forecast
Issued by NWS

Home | Current Version | Previous Version | Text Only | Print | Product List | Glossary On
Versions: 1 2 3 4 5 6 7 8 9 10 11 12 13 14 15 16 17 18 19 20 21 22 23 24 25 26 27 28 29
000
FTUS46 KMTR 271400 AAC
TAFSFO
TAF AMD
KSFO 271446Z 2715/2818 29015G20KT P6SM FEW008 SCT150
      TEMPO 2715/2717 BKN015
     FM271700 28018G25KT P6SM SCT020 BKN150
     FM272100 28025G32KT P6SM SCT025 BKN100
     FM272300 27030G38KT P6SM SCT025 BKN100
     FM280300 27025G32KT P6SM SCT020 BKN150
     FM280900 28018G25KT P6SM SCT015 BKN025=

USA.gov is the U.S. government's official web portal to all federal, state and local government web resources and services.